Wetterdaten: Freitag, 09.11.2012
Datum Zeit Temperatur Luftfeuchte Regen Wind Richtung Richtung Taupunkt Windchill Windben
09.11.2012 00:00 2,6 C 81 % 0,0 l/m 0,3 km/h (0 Bft) O-SO 112 -0,3 C 2,0 C 0,0 km/h (0 Bft)
09.11.2012 00:05 2,3 C 81 % 0,0 l/m 0,5 km/h (0 Bft) N 360 -0,6 C 2,0 C 0,0 km/h (0 Bft)
09.11.2012 00:10 1,7 C 81 % 0,0 l/m 0,0 km/h (0 Bft) W 270 -1,2 C 1,8 C 0,0 km/h (0 Bft)
09.11.2012 00:15 1,6 C 81 % 0,0 l/m 0,2 km/h (0 Bft) N-NW 337 -1,3 C 1,5 C 0,0 km/h (0 Bft)
09.11.2012 00:20 1,5 C 82 % 0,0 l/m 0,2 km/h (0 Bft) S-SW 202 -1,2 C 1,3 C 0,0 km/h (0 Bft)
09.11.2012 00:25 1,5 C 82 % 0,0 l/m 0,0 km/h (0 Bft) NW 315 -1,2 C 1,2 C 0,0 km/h (0 Bft)
09.11.2012 00:30 1,8 C 83 % 0,0 l/m 0,0 km/h (0 Bft) N-NW 337 -0,8 C 1,2 C 0,0 km/h (0 Bft)
09.11.2012 00:35 1,9 C 83 % 0,0 l/m 0,3 km/h (0 Bft) NO 45 -0,7 C 1,3 C 0,0 km/h (0 Bft)
09.11.2012 00:40 1,8 C 82 % 0,0 l/m 0,3 km/h (0 Bft) NO 45 -0,9 C 1,3 C 2,6 km/h (1 Bft)
09.11.2012 00:45 1,8 C 82 % 0,0 l/m 0,0 km/h (0 Bft) S-SO 157 -0,9 C 1,3 C 0,0 km/h (0 Bft)
09.11.2012 00:50 1,9 C 83 % 0,0 l/m 0,3 km/h (0 Bft) N-NO 22 -0,7 C 1,3 C 4,3 km/h (1 Bft)
09.11.2012 00:55 2,2 C 83 % 0,0 l/m 0,3 km/h (0 Bft) S 180 -0,4 C 1,3 C 0,0 km/h (0 Bft)
09.11.2012 01:00 1,7 C 83 % 0,0 l/m 0,2 km/h (0 Bft) W-NW 292 -0,9 C 1,3 C 0,0 km/h (0 Bft)
09.11.2012 01:05 1,4 C 82 % 0,0 l/m 0,2 km/h (0 Bft) O-SO 112 -1,3 C 1,2 C 0,0 km/h (0 Bft)
09.11.2012 01:10 2,5 C 83 % 0,0 l/m 0,5 km/h (0 Bft) N-NO 22 -0,1 C 1,1 C 1,9 km/h (1 Bft)
09.11.2012 01:15 2,6 C 81 % 0,0 l/m 0,6 km/h (0 Bft) N-NW 337 -0,3 C 1,4 C 1,8 km/h (1 Bft)
09.11.2012 01:20 2,0 C 80 % 0,0 l/m 0,5 km/h (0 Bft) S 180 -1,1 C 1,5 C 0,0 km/h (0 Bft)
09.11.2012 01:25 1,4 C 80 % 0,0 l/m 0,2 km/h (0 Bft) N 360 -1,7 C 1,3 C 0,0 km/h (0 Bft)
09.11.2012 01:30 1,8 C 81 % 0,0 l/m 0,0 km/h (0 Bft) W-NW 292 -1,1 C 1,4 C 0,0 km/h (0 Bft)
09.11.2012 01:35 1,4 C 81 % 0,0 l/m 0,0 km/h (0 Bft) W-NW 292 -1,5 C 1,4 C 0,0 km/h (0 Bft)
09.11.2012 01:40 1,2 C 81 % 0,0 l/m 0,0 km/h (0 Bft) W-SW 247 -1,7 C 1,1 C 0,0 km/h (0 Bft)
09.11.2012 01:45 1,1 C 81 % 0,0 l/m 0,0 km/h (0 Bft) N-NO 22 -1,8 C 0,9 C 0,0 km/h (0 Bft)
09.11.2012 01:50 1,2 C 81 % 0,0 l/m 0,0 km/h (0 Bft) SO 135 -1,7 C 0,7 C 0,0 km/h (0 Bft)
09.11.2012 01:55 1,4 C 82 % 0,0 l/m 0,3 km/h (0 Bft) NO 45 -1,3 C 0,9 C 2,1 km/h (1 Bft)
09.11.2012 02:00 1,7 C 82 % 0,0 l/m 0,8 km/h (0 Bft) O 90 -1,0 C 1,6 C 4,8 km/h (1 Bft)
09.11.2012 02:05 1,7 C 82 % 0,0 l/m 0,6 km/h (0 Bft) N-NW 337 -1,0 C 1,9 C 0,0 km/h (0 Bft)
09.11.2012 02:10 1,1 C 82 % 0,0 l/m 0,3 km/h (0 Bft) N 360 -1,6 C 1,7 C 0,0 km/h (0 Bft)
09.11.2012 02:15 1,2 C 82 % 0,0 l/m 0,2 km/h (0 Bft) N-NW 337 -1,5 C 1,4 C 0,0 km/h (0 Bft)
09.11.2012 02:20 0,8 C 82 % 0,0 l/m 0,2 km/h (0 Bft) N 360 -1,9 C 0,9 C 0,0 km/h (0 Bft)
09.11.2012 02:25 1,1 C 83 % 0,0 l/m 0,2 km/h (0 Bft) SO 135 -1,5 C 0,9 C 0,0 km/h (0 Bft)
09.11.2012 02:30 1,5 C 83 % 0,0 l/m 0,6 km/h (0 Bft) N-NO 22 -1,1 C 0,9 C 0,0 km/h (0 Bft)
09.11.2012 02:35 1,3 C 82 % 0,0 l/m 0,5 km/h (0 Bft) S-SW 202 -1,4 C 1,2 C 0,0 km/h (0 Bft)
09.11.2012 02:40 0,8 C 82 % 0,0 l/m 0,0 km/h (0 Bft) O-SO 112 -1,9 C 0,7 C 0,0 km/h (0 Bft)
09.11.2012 02:45 0,7 C 82 % 0,0 l/m 0,0 km/h (0 Bft) S-SO 157 -2,0 C 0,4 C 0,0 km/h (0 Bft)
09.11.2012 02:50 0,8 C 83 % 0,0 l/m 0,3 km/h (0 Bft) N 360 -1,8 C 0,2 C 2,4 km/h (1 Bft)
09.11.2012 02:55 2,0 C 82 % 0,0 l/m 0,5 km/h (0 Bft) N 360 -0,7 C 0,3 C 0,0 km/h (0 Bft)
09.11.2012 03:00 1,5 C 80 % 0,0 l/m 0,2 km/h (0 Bft) N-NO 22 -1,6 C 0,5 C 0,0 km/h (0 Bft)
09.11.2012 03:05 1,1 C 80 % 0,0 l/m 0,2 km/h (0 Bft) N 360 -2,0 C 0,4 C 2,3 km/h (1 Bft)
09.11.2012 03:10 0,4 C 80 % 0,0 l/m 0,2 km/h (0 Bft) S 180 -2,6 C 0,4 C 0,0 km/h (0 Bft)
09.11.2012 03:15 0,0 C 80 % 0,0 l/m 0,0 km/h (0 Bft) SW 225 -3,0 C 0,0 C 0,0 km/h (0 Bft)
09.11.2012 03:20 -0,2 C 82 % 0,0 l/m 0,0 km/h (0 Bft) W-NW 292 -2,9 C -0,7 C 0,0 km/h (0 Bft)
09.11.2012 03:25 -0,3 C 83 % 0,0 l/m 0,0 km/h (0 Bft) W-NW 292 -2,8 C -0,9 C 0,0 km/h (0 Bft)
09.11.2012 03:30 -0,6 C 83 % 0,0 l/m 0,0 km/h (0 Bft) W-NW 292 -3,1 C -1,1 C 0,0 km/h (0 Bft)
09.11.2012 03:35 -0,5 C 84 % 0,0 l/m 0,2 km/h (0 Bft) W 270 -2,9 C -1,3 C 0,0 km/h (0 Bft)
09.11.2012 03:40 -0,5 C 85 % 0,0 l/m 0,2 km/h (0 Bft) W-SW 247 -2,7 C -1,4 C 0,0 km/h (0 Bft)
09.11.2012 03:45 -0,6 C 85 % 0,0 l/m 0,0 km/h (0 Bft) W-NW 292 -2,8 C -1,5 C 0,0 km/h (0 Bft)
09.11.2012 03:50 -0,8 C 85 % 0,0 l/m 0,0 km/h (0 Bft) NW 315 -3,0 C -1,6 C 0,0 km/h (0 Bft)
09.11.2012 03:55 -0,7 C 86 % 0,0 l/m 0,0 km/h (0 Bft) W-NW 292 -2,7 C -1,6 C 1,6 km/h (1 Bft)
09.11.2012 04:00 -1,0 C 86 % 0,0 l/m 0,0 km/h (0 Bft) S-SO 157 -3,0 C -1,6 C 0,0 km/h (0 Bft)
09.11.2012 04:05 -1,1 C 86 % 0,0 l/m 0,0 km/h (0 Bft) N-NW 337 -3,1 C -1,7 C 0,0 km/h (0 Bft)
09.11.2012 04:10 -1,0 C 86 % 0,0 l/m 0,0 km/h (0 Bft) W-SW 247 -3,0 C -1,9 C 0,0 km/h (0 Bft)
09.11.2012 04:15 -1,2 C 86 % 0,0 l/m 0,0 km/h (0 Bft) N-NO 22 -3,2 C -1,8 C 0,0 km/h (0 Bft)
09.11.2012 04:20 -1,5 C 86 % 0,0 l/m 0,0 km/h (0 Bft) NW 315 -3,5 C -2,0 C 0,0 km/h (0 Bft)
09.11.2012 04:25 -0,6 C 87 % 0,0 l/m 0,2 km/h (0 Bft) N-NO 22 -2,5 C -2,0 C 0,0 km/h (0 Bft)
09.11.2012 04:30 0,4 C 88 % 0,0 l/m 0,3 km/h (0 Bft) NO 45 -1,3 C -1,7 C 0,0 km/h (0 Bft)
09.11.2012 04:35 0,4 C 88 % 0,0 l/m 0,5 km/h (0 Bft) O-NO 67 -1,3 C -1,6 C 1,9 km/h (1 Bft)
09.11.2012 04:40 -0,5 C 87 % 0,0 l/m 0,5 km/h (0 Bft) N-NW 337 -2,4 C -1,7 C 1,8 km/h (1 Bft)
09.11.2012 04:45 0,3 C 88 % 0,0 l/m 0,5 km/h (0 Bft) N 360 -1,4 C -1,7 C 3,1 km/h (1 Bft)
09.11.2012 04:50 0,6 C 88 % 0,0 l/m 0,5 km/h (0 Bft) N 360 -1,2 C -1,4 C 0,0 km/h (0 Bft)
09.11.2012 04:55 0,4 C 87 % 0,0 l/m 0,3 km/h (0 Bft) N-NO 22 -1,5 C -1,4 C 1,8 km/h (1 Bft)
09.11.2012 05:00 -0,1 C 86 % 0,0 l/m 0,2 km/h (0 Bft) W 270 -2,2 C -1,5 C 0,0 km/h (0 Bft)
09.11.2012 05:05 -0,5 C 86 % 0,0 l/m 0,2 km/h (0 Bft) N-NO 22 -2,5 C -1,7 C 0,0 km/h (0 Bft)
09.11.2012 05:10 -0,5 C 86 % 0,0 l/m 0,2 km/h (0 Bft) N-NW 337 -2,5 C -1,9 C 0,0 km/h (0 Bft)
09.11.2012 05:15 -0,3 C 87 % 0,0 l/m 0,2 km/h (0 Bft) N-NW 337 -2,2 C -1,9 C 0,0 km/h (0 Bft)
09.11.2012 05:20 -0,5 C 87 % 0,0 l/m 0,0 km/h (0 Bft) W-NW 292 -2,4 C -1,9 C 0,0 km/h (0 Bft)
09.11.2012 05:25 -0,6 C 87 % 0,0 l/m 0,0 km/h (0 Bft) N-NW 337 -2,5 C -2,0 C 0,0 km/h (0 Bft)
09.11.2012 05:30 -1,0 C 87 % 0,0 l/m 0,0 km/h (0 Bft) N 360 -2,9 C -2,3 C 0,0 km/h (0 Bft)
09.11.2012 05:35 -1,4 C 86 % 0,0 l/m 0,0 km/h (0 Bft) N 360 -3,4 C -2,5 C 0,0 km/h (0 Bft)
09.11.2012 05:40 -1,6 C 86 % 0,0 l/m 0,0 km/h (0 Bft) SO 135 -3,6 C -2,6 C 0,0 km/h (0 Bft)
09.11.2012 05:45 -1,4 C 87 % 0,0 l/m 0,0 km/h (0 Bft) N 360 -3,3 C -2,6 C 0,0 km/h (0 Bft)
09.11.2012 05:50 -1,1 C 88 % 0,0 l/m 0,0 km/h (0 Bft) O-NO 67 -2,8 C -2,5 C 0,0 km/h (0 Bft)
09.11.2012 05:55 -0,9 C 88 % 0,0 l/m 0,0 km/h (0 Bft) S-SO 157 -2,6 C -2,3 C 0,0 km/h (0 Bft)
09.11.2012 06:00 -1,1 C 88 % 0,0 l/m 0,3 km/h (0 Bft) W-SW 247 -2,8 C -2,3 C 0,0 km/h (0 Bft)
09.11.2012 06:05 -1,3 C 88 % 0,0 l/m 0,3 km/h (0 Bft) NW 315 -3,0 C -2,3 C 0,0 km/h (0 Bft)
09.11.2012 06:10 -1,8 C 88 % 0,0 l/m 0,0 km/h (0 Bft) N 360 -3,5 C -2,4 C 0,0 km/h (0 Bft)
09.11.2012 06:15 -1,6 C 88 % 0,0 l/m 0,2 km/h (0 Bft) N 360 -3,3 C -2,5 C 0,0 km/h (0 Bft)
09.11.2012 06:20 -1,4 C 89 % 0,0 l/m 0,0 km/h (0 Bft) N 360 -3,0 C -2,5 C 0,0 km/h (0 Bft)
09.11.2012 06:25 -1,6 C 89 % 0,0 l/m 0,0 km/h (0 Bft) W-NW 292 -3,2 C -2,6 C 0,0 km/h (0 Bft)
09.11.2012 06:30 -1,9 C 88 % 0,0 l/m 0,0 km/h (0 Bft) S-SO 157 -3,6 C -2,8 C 0,0 km/h (0 Bft)
09.11.2012 06:35 -2,0 C 89 % 0,0 l/m 0,0 km/h (0 Bft) SO 135 -3,6 C -2,9 C 0,0 km/h (0 Bft)
09.11.2012 06:40 -2,1 C 89 % 0,0 l/m 0,0 km/h (0 Bft) S-SO 157 -3,7 C -3,0 C 0,0 km/h (0 Bft)
09.11.2012 06:45 -2,2 C 89 % 0,0 l/m 0,0 km/h (0 Bft) S 180 -3,8 C -3,0 C 0,0 km/h (0 Bft)
09.11.2012 06:50 -2,4 C 89 % 0,0 l/m 0,0 km/h (0 Bft) S 180 -4,0 C -3,1 C 0,0 km/h (0 Bft)
09.11.2012 06:55 -2,4 C 89 % 0,0 l/m 0,0 km/h (0 Bft) NO 45 -4,0 C -3,1 C 0,0 km/h (0 Bft)
09.11.2012 07:00 -2,4 C 89 % 0,0 l/m 0,0 km/h (0 Bft) N-NO 22 -4,0 C -3,1 C 0,0 km/h (0 Bft)
09.11.2012 07:05 -2,3 C 89 % 0,0 l/m 0,0 km/h (0 Bft) SO 135 -3,9 C -3,0 C 0,0 km/h (0 Bft)
09.11.2012 07:10 -2,4 C 89 % 0,0 l/m 0,0 km/h (0 Bft) SO 135 -4,0 C -3,0 C 0,0 km/h (0 Bft)
09.11.2012 07:15 -2,4 C 89 % 0,0 l/m 0,0 km/h (0 Bft) SO 135 -4,0 C -3,0 C 0,0 km/h (0 Bft)
09.11.2012 07:20 -2,4 C 89 % 0,0 l/m 0,0 km/h (0 Bft) N 360 -4,0 C -3,0 C 0,0 km/h (0 Bft)
09.11.2012 07:25 -2,4 C 89 % 0,0 l/m 0,0 km/h (0 Bft) N 360 -4,0 C -3,0 C 0,0 km/h (0 Bft)
09.11.2012 07:30 -2,2 C 89 % 0,0 l/m 0,0 km/h (0 Bft) N 360 -3,8 C -3,0 C 0,0 km/h (0 Bft)
09.11.2012 07:35 -2,2 C 89 % 0,0 l/m 0,0 km/h (0 Bft) N 360 -3,8 C -2,9 C 0,0 km/h (0 Bft)
09.11.2012 07:40 -2,3 C 90 % 0,0 l/m 0,0 km/h (0 Bft) W-NW 292 -3,7 C -2,9 C 0,0 km/h (0 Bft)
09.11.2012 07:45 -2,2 C 90 % 0,0 l/m 0,2 km/h (0 Bft) SO 135 -3,6 C -3,0 C 2,1 km/h (1 Bft)
09.11.2012 07:50 -1,8 C 90 % 0,0 l/m 0,2 km/h (0 Bft) N-NW 337 -3,2 C -2,8 C 0,0 km/h (0 Bft)
09.11.2012 07:55 -2,0 C 90 % 0,0 l/m 0,2 km/h (0 Bft) S-SO 157 -3,4 C -2,7 C 0,0 km/h (0 Bft)
09.11.2012 08:00 -1,8 C 91 % 0,0 l/m 0,0 km/h (0 Bft) N-NW 337 -3,1 C -2,6 C 0,0 km/h (0 Bft)
09.11.2012 08:05 -2,0 C 91 % 0,0 l/m 0,0 km/h (0 Bft) N 360 -3,3 C -2,6 C 0,0 km/h (0 Bft)
09.11.2012 08:10 -2,0 C 91 % 0,0 l/m 0,2 km/h (0 Bft) W-NW 292 -3,3 C -2,5 C 0,0 km/h (0 Bft)
09.11.2012 08:15 -1,9 C 91 % 0,0 l/m 0,2 km/h (0 Bft) N 360 -3,2 C -2,4 C 0,0 km/h (0 Bft)
09.11.2012 08:20 -1,5 C 91 % 0,0 l/m 0,0 km/h (0 Bft) N 360 -2,8 C -2,2 C 0,0 km/h (0 Bft)
09.11.2012 08:25 -1,6 C 91 % 0,0 l/m 0,0 km/h (0 Bft) N-NO 22 -2,9 C -2,2 C 0,0 km/h (0 Bft)
09.11.2012 08:30 -1,4 C 91 % 0,0 l/m 0,0 km/h (0 Bft) NO 45 -2,7 C -2,1 C 0,0 km/h (0 Bft)
09.11.2012 08:35 -1,2 C 91 % 0,0 l/m 0,0 km/h (0 Bft) NO 45 -2,5 C -2,1 C 0,0 km/h (0 Bft)
09.11.2012 08:40 -1,3 C 91 % 0,0 l/m 0,0 km/h (0 Bft) NO 45 -2,6 C -2,0 C 0,0 km/h (0 Bft)
09.11.2012 08:45 -1,0 C 92 % 0,0 l/m 0,0 km/h (0 Bft) N-NW 337 -2,1 C -1,8 C 0,0 km/h (0 Bft)
09.11.2012 08:50 -1,1 C 92 % 0,0 l/m 0,0 km/h (0 Bft) N 360 -2,2 C -1,6 C 0,0 km/h (0 Bft)
09.11.2012 08:55 -1,0 C 92 % 0,0 l/m 0,0 km/h (0 Bft) NO 45 -2,1 C -1,4 C 0,0 km/h (0 Bft)
09.11.2012 09:00 -0,6 C 92 % 0,0 l/m 0,0 km/h (0 Bft) NO 45 -1,7 C -1,2 C 0,0 km/h (0 Bft)
09.11.2012 09:05 -0,1 C 92 % 0,0 l/m 0,0 km/h (0 Bft) N-NO 22 -1,2 C -1,1 C 0,0 km/h (0 Bft)
09.11.2012 09:10 -0,2 C 92 % 0,0 l/m 0,0 km/h (0 Bft) NO 45 -1,3 C -0,9 C 0,0 km/h (0 Bft)
09.11.2012 09:15 0,1 C 92 % 0,0 l/m 0,0 km/h (0 Bft) N-NO 22 -1,0 C -0,9 C 0,0 km/h (0 Bft)
09.11.2012 09:20 0,3 C 92 % 0,0 l/m 0,2 km/h (0 Bft) N 360 -0,8 C -0,5 C 0,0 km/h (0 Bft)
09.11.2012 09:25 0,6 C 92 % 0,0 l/m 0,2 km/h (0 Bft) N-NO 22 -0,5 C -0,4 C 1,6 km/h (1 Bft)
09.11.2012 09:30 1,2 C 92 % 0,0 l/m 0,0 km/h (0 Bft) NO 45 0,0 C 0,1 C 0,0 km/h (0 Bft)
09.11.2012 09:35 1,1 C 91 % 0,0 l/m 0,0 km/h (0 Bft) O 90 -0,2 C 0,3 C 0,0 km/h (0 Bft)
09.11.2012 09:40 1,3 C 91 % 0,0 l/m 0,0 km/h (0 Bft) NO 45 -0,0 C 0,8 C 0,0 km/h (0 Bft)
09.11.2012 09:45 1,6 C 91 % 0,0 l/m 0,0 km/h (0 Bft) N-NO 22 0,3 C 1,5 C 0,0 km/h (0 Bft)
09.11.2012 09:50 1,9 C 90 % 0,0 l/m 0,0 km/h (0 Bft) NO 45 0,4 C 3,1 C 0,0 km/h (0 Bft)
09.11.2012 09:55 1,9 C 89 % 0,0 l/m 0,0 km/h (0 Bft) N-NO 22 0,3 C 4,0 C 0,0 km/h (0 Bft)
09.11.2012 10:00 2,5 C 89 % 0,0 l/m 0,0 km/h (0 Bft) N-NO 22 0,9 C 6,3 C 0,0 km/h (0 Bft)
09.11.2012 10:05 2,6 C 88 % 0,0 l/m 0,0 km/h (0 Bft) N-NO 22 0,8 C 7,7 C 0,0 km/h (0 Bft)
09.11.2012 10:10 2,8 C 87 % 0,0 l/m 0,0 km/h (0 Bft) NO 45 0,9 C 10,0 C 0,0 km/h (0 Bft)
09.11.2012 10:15 3,0 C 87 % 0,0 l/m 0,0 km/h (0 Bft) NO 45 1,1 C 10,9 C 0,0 km/h (0 Bft)
09.11.2012 10:20 3,3 C 86 % 0,0 l/m 0,0 km/h (0 Bft) NO 45 1,2 C 11,6 C 0,0 km/h (0 Bft)
09.11.2012 10:25 3,4 C 85 % 0,0 l/m 0,0 km/h (0 Bft) NO 45 1,1 C 12,1 C 0,0 km/h (0 Bft)
09.11.2012 10:30 3,7 C 84 % 0,0 l/m 0,0 km/h (0 Bft) NO 45 1,3 C 13,7 C 0,0 km/h (0 Bft)
09.11.2012 10:35 3,7 C 84 % 0,0 l/m 0,0 km/h (0 Bft) NO 45 1,3 C 14,7 C 0,0 km/h (0 Bft)
09.11.2012 10:40 4,1 C 83 % 0,0 l/m 0,0 km/h (0 Bft) NO 45 1,5 C 15,3 C 0,0 km/h (0 Bft)
09.11.2012 10:45 4,4 C 82 % 0,0 l/m 0,0 km/h (0 Bft) NO 45 1,6 C 15,3 C 0,0 km/h (0 Bft)
09.11.2012 10:50 4,8 C 81 % 0,0 l/m 0,0 km/h (0 Bft) NO 45 1,8 C 15,7 C 1,6 km/h (1 Bft)
09.11.2012 10:55 4,7 C 80 % 0,0 l/m 0,0 km/h (0 Bft) NO 45 1,6 C 15,8 C 0,0 km/h (0 Bft)
09.11.2012 11:00 5,2 C 78 % 0,0 l/m 0,0 km/h (0 Bft) NO 45 1,7 C 16,3 C 0,0 km/h (0 Bft)
09.11.2012 11:05 5,5 C 77 % 0,0 l/m 0,0 km/h (0 Bft) N-NW 337 1,8 C 16,4 C 0,0 km/h (0 Bft)
09.11.2012 11:10 5,8 C 75 % 0,0 l/m 0,8 km/h (0 Bft) W-NW 292 1,7 C 16,4 C 3,4 km/h (1 Bft)
09.11.2012 11:15 6,1 C 72 % 0,0 l/m 1,3 km/h (1 Bft) W-SW 247 1,4 C 16,1 C 0,0 km/h (0 Bft)
09.11.2012 11:20 6,0 C 71 % 0,0 l/m 0,8 km/h (0 Bft) O 90 1,1 C 16,8 C 0,0 km/h (0 Bft)
09.11.2012 11:25 5,9 C 72 % 0,0 l/m 0,2 km/h (0 Bft) N-NO 22 1,2 C 17,5 C 0,0 km/h (0 Bft)
09.11.2012 11:30 6,1 C 70 % 0,0 l/m 0,2 km/h (0 Bft) N-NW 337 1,0 C 17,3 C 1,9 km/h (1 Bft)
09.11.2012 11:35 6,4 C 69 % 0,0 l/m 1,1 km/h (1 Bft) S 180 1,1 C 16,7 C 2,3 km/h (1 Bft)
09.11.2012 11:40 6,5 C 69 % 0,0 l/m 1,3 km/h (1 Bft) N 360 1,2 C 16,3 C 0,0 km/h (0 Bft)
09.11.2012 11:45 6,5 C 70 % 0,0 l/m 0,8 km/h (0 Bft) NW 315 1,4 C 16,7 C 2,3 km/h (1 Bft)
09.11.2012 11:50 6,8 C 69 % 0,0 l/m 1,0 km/h (0 Bft) N-NW 337 1,5 C 16,6 C 1,8 km/h (1 Bft)
09.11.2012 11:55 6,7 C 69 % 0,0 l/m 0,8 km/h (0 Bft) N-NO 22 1,4 C 16,5 C 0,0 km/h (0 Bft)
09.11.2012 12:00 6,9 C 69 % 0,0 l/m 1,1 km/h (1 Bft) W-NW 292 1,6 C 16,3 C 1,8 km/h (1 Bft)
09.11.2012 12:05 7,1 C 68 % 0,0 l/m 1,4 km/h (1 Bft) W-NW 292 1,6 C 15,6 C 1,6 km/h (1 Bft)
09.11.2012 12:10 7,0 C 68 % 0,0 l/m 2,7 km/h (1 Bft) W 270 1,5 C 13,9 C 6,6 km/h (2 Bft)
09.11.2012 12:15 6,8 C 69 % 0,0 l/m 2,7 km/h (1 Bft) W-NW 292 1,5 C 13,7 C 2,9 km/h (1 Bft)
09.11.2012 12:20 7,3 C 68 % 0,0 l/m 2,6 km/h (1 Bft) W 270 1,8 C 13,0 C 5,6 km/h (1 Bft)
09.11.2012 12:25 7,1 C 68 % 0,0 l/m 2,9 km/h (1 Bft) N-NW 337 1,6 C 12,1 C 4,0 km/h (1 Bft)
09.11.2012 12:30 7,2 C 67 % 0,0 l/m 2,9 km/h (1 Bft) N 360 1,5 C 11,2 C 7,9 km/h (2 Bft)
09.11.2012 12:35 7,5 C 65 % 0,0 l/m 3,4 km/h (1 Bft) NW 315 1,4 C 10,5 C 4,3 km/h (1 Bft)
09.11.2012 12:40 7,1 C 68 % 0,0 l/m 3,2 km/h (1 Bft) W-NW 292 1,6 C 10,2 C 8,7 km/h (2 Bft)
09.11.2012 12:45 7,8 C 64 % 0,0 l/m 3,2 km/h (1 Bft) NW 315 1,4 C 10,2 C 3,5 km/h (1 Bft)
09.11.2012 12:50 7,8 C 64 % 0,0 l/m 2,3 km/h (1 Bft) W-NW 292 1,4 C 10,3 C 1,8 km/h (1 Bft)
09.11.2012 12:55 7,8 C 65 % 0,0 l/m 1,9 km/h (1 Bft) NW 315 1,6 C 10,5 C 4,3 km/h (1 Bft)
09.11.2012 13:00 8,1 C 66 % 0,0 l/m 2,9 km/h (1 Bft) W-NW 292 2,1 C 11,8 C 4,3 km/h (1 Bft)
09.11.2012 13:05 8,4 C 64 % 0,0 l/m 3,1 km/h (1 Bft) W-NW 292 2,0 C 12,2 C 5,1 km/h (1 Bft)
09.11.2012 13:10 8,6 C 62 % 0,0 l/m 2,7 km/h (1 Bft) NW 315 1,7 C 11,7 C 5,0 km/h (1 Bft)
09.11.2012 13:15 8,6 C 65 % 0,0 l/m 3,5 km/h (1 Bft) W 270 2,4 C 11,4 C 6,1 km/h (2 Bft)
09.11.2012 13:20 8,8 C 64 % 0,0 l/m 3,1 km/h (1 Bft) W 270 2,4 C 11,0 C 9,3 km/h (2 Bft)
09.11.2012 13:25 9,0 C 63 % 0,0 l/m 3,4 km/h (1 Bft) S 180 2,3 C 10,7 C 8,0 km/h (2 Bft)
09.11.2012 13:30 8,9 C 63 % 0,0 l/m 4,2 km/h (1 Bft) N-NW 337 2,2 C 10,5 C 5,6 km/h (1 Bft)
09.11.2012 13:35 8,8 C 64 % 0,0 l/m 3,9 km/h (1 Bft) W-NW 292 2,4 C 10,4 C 3,2 km/h (1 Bft)
09.11.2012 13:40 9,0 C 62 % 0,0 l/m 4,3 km/h (1 Bft) S-SW 202 2,1 C 10,3 C 7,2 km/h (2 Bft)
09.11.2012 13:45 9,0 C 62 % 0,0 l/m 3,9 km/h (1 Bft) W-NW 292 2,1 C 10,3 C 2,1 km/h (1 Bft)
09.11.2012 13:50 9,0 C 63 % 0,0 l/m 3,7 km/h (1 Bft) W-NW 292 2,3 C 10,4 C 8,5 km/h (2 Bft)
09.11.2012 13:55 9,0 C 64 % 0,0 l/m 3,7 km/h (1 Bft) S 180 2,6 C 10,3 C 3,9 km/h (1 Bft)
09.11.2012 14:00 9,1 C 63 % 0,0 l/m 4,0 km/h (1 Bft) W-NW 292 2,4 C 10,3 C 4,7 km/h (1 Bft)
09.11.2012 14:05 8,9 C 65 % 0,0 l/m 4,0 km/h (1 Bft) W-NW 292 2,7 C 10,3 C 5,5 km/h (1 Bft)
09.11.2012 14:10 9,1 C 61 % 0,0 l/m 4,0 km/h (1 Bft) W 270 2,0 C 10,3 C 4,7 km/h (1 Bft)
09.11.2012 14:15 9,1 C 60 % 0,0 l/m 3,5 km/h (1 Bft) W 270 1,8 C 10,3 C 3,9 km/h (1 Bft)
09.11.2012 14:20 8,9 C 64 % 0,0 l/m 2,7 km/h (1 Bft) W-NW 292 2,5 C 10,3 C 5,3 km/h (1 Bft)
09.11.2012 14:25 8,9 C 64 % 0,0 l/m 2,7 km/h (1 Bft) W-NW 292 2,5 C 10,3 C 3,9 km/h (1 Bft)
09.11.2012 14:30 8,9 C 64 % 0,0 l/m 2,9 km/h (1 Bft) W-NW 292 2,5 C 10,2 C 5,6 km/h (1 Bft)
09.11.2012 14:35 8,9 C 62 % 0,0 l/m 1,8 km/h (1 Bft) W-SW 247 2,0 C 10,3 C 0,0 km/h (0 Bft)
09.11.2012 14:40 9,1 C 62 % 0,0 l/m 2,7 km/h (1 Bft) W-NW 292 2,2 C 10,5 C 5,5 km/h (1 Bft)
09.11.2012 14:45 9,2 C 62 % 0,0 l/m 3,1 km/h (1 Bft) NW 315 2,3 C 10,6 C 3,5 km/h (1 Bft)
09.11.2012 14:50 9,3 C 60 % 0,0 l/m 3,4 km/h (1 Bft) N 360 1,9 C 10,5 C 2,9 km/h (1 Bft)
09.11.2012 14:55 9,3 C 61 % 0,0 l/m 2,7 km/h (1 Bft) W-NW 292 2,2 C 10,6 C 3,5 km/h (1 Bft)
09.11.2012 15:00 9,3 C 60 % 0,0 l/m 2,1 km/h (1 Bft) N-NW 337 1,9 C 10,5 C 3,1 km/h (1 Bft)
09.11.2012 15:05 9,3 C 61 % 0,0 l/m 3,1 km/h (1 Bft) NW 315 2,2 C 10,3 C 4,2 km/h (1 Bft)
09.11.2012 15:10 9,2 C 62 % 0,0 l/m 2,7 km/h (1 Bft) W-NW 292 2,3 C 9,9 C 3,7 km/h (1 Bft)
09.11.2012 15:15 8,8 C 63 % 0,0 l/m 1,9 km/h (1 Bft) N-NW 337 2,2 C 9,6 C 0,0 km/h (0 Bft)
09.11.2012 15:20 8,7 C 64 % 0,0 l/m 1,4 km/h (1 Bft) N 360 2,3 C 9,3 C 4,0 km/h (1 Bft)
09.11.2012 15:25 8,4 C 65 % 0,0 l/m 1,6 km/h (1 Bft) N 360 2,2 C 9,2 C 2,9 km/h (1 Bft)
09.11.2012 15:30 8,0 C 66 % 0,0 l/m 2,1 km/h (1 Bft) O 90 2,0 C 8,8 C 2,4 km/h (1 Bft)
09.11.2012 15:35 8,0 C 67 % 0,0 l/m 1,6 km/h (1 Bft) N-NW 337 2,3 C 8,6 C 1,8 km/h (1 Bft)
09.11.2012 15:40 7,6 C 68 % 0,0 l/m 1,3 km/h (1 Bft) NW 315 2,1 C 8,3 C 0,0 km/h (0 Bft)
09.11.2012 15:45 7,5 C 69 % 0,0 l/m 1,3 km/h (1 Bft) N-NW 337 2,2 C 8,2 C 2,7 km/h (1 Bft)
09.11.2012 15:50 7,2 C 69 % 0,0 l/m 1,9 km/h (1 Bft) NW 315 1,9 C 7,9 C 2,1 km/h (1 Bft)
09.11.2012 15:55 7,0 C 70 % 0,0 l/m 1,9 km/h (1 Bft) N 360 1,9 C 7,7 C 2,6 km/h (1 Bft)
09.11.2012 16:00 6,7 C 70 % 0,0 l/m 2,1 km/h (1 Bft) N 360 1,6 C 7,4 C 3,2 km/h (1 Bft)
09.11.2012 16:05 6,7 C 71 % 0,0 l/m 2,6 km/h (1 Bft) N 360 1,8 C 7,4 C 3,2 km/h (1 Bft)
09.11.2012 16:10 6,5 C 72 % 0,0 l/m 2,7 km/h (1 Bft) N 360 1,8 C 7,3 C 3,1 km/h (1 Bft)
09.11.2012 16:15 6,4 C 72 % 0,0 l/m 2,7 km/h (1 Bft) N 360 1,7 C 7,1 C 3,9 km/h (1 Bft)
09.11.2012 16:20 6,4 C 72 % 0,0 l/m 2,7 km/h (1 Bft) N 360 1,7 C 7,0 C 3,1 km/h (1 Bft)
09.11.2012 16:25 6,4 C 73 % 0,0 l/m 2,7 km/h (1 Bft) N 360 1,9 C 6,9 C 2,3 km/h (1 Bft)
09.11.2012 16:30 6,4 C 73 % 0,0 l/m 1,8 km/h (1 Bft) N-NO 22 1,9 C 6,8 C 0,0 km/h (0 Bft)
09.11.2012 16:35 6,3 C 73 % 0,0 l/m 1,1 km/h (1 Bft) N-NW 337 1,8 C 6,6 C 3,1 km/h (1 Bft)
09.11.2012 16:40 6,2 C 73 % 0,0 l/m 1,6 km/h (1 Bft) N 360 1,7 C 6,5 C 2,4 km/h (1 Bft)
09.11.2012 16:45 6,2 C 73 % 0,0 l/m 2,4 km/h (1 Bft) N 360 1,7 C 6,5 C 2,6 km/h (1 Bft)
09.11.2012 16:50 6,2 C 73 % 0,0 l/m 1,8 km/h (1 Bft) N-NO 22 1,7 C 6,3 C 1,6 km/h (1 Bft)
09.11.2012 16:55 6,2 C 73 % 0,0 l/m 1,0 km/h (0 Bft) N-NO 22 1,7 C 6,2 C 0,0 km/h (0 Bft)
09.11.2012 17:00 5,9 C 75 % 0,0 l/m 0,6 km/h (0 Bft) N-NO 22 1,8 C 5,9 C 2,4 km/h (1 Bft)
09.11.2012 17:05 5,8 C 75 % 0,0 l/m 0,5 km/h (0 Bft) O 90 1,7 C 5,6 C 0,0 km/h (0 Bft)
09.11.2012 17:10 5,4 C 75 % 0,0 l/m 0,0 km/h (0 Bft) N-NO 22 1,3 C 5,0 C 0,0 km/h (0 Bft)
09.11.2012 17:15 5,5 C 76 % 0,0 l/m 0,0 km/h (0 Bft) N 360 1,6 C 4,6 C 0,0 km/h (0 Bft)
09.11.2012 17:20 5,0 C 76 % 0,0 l/m 0,0 km/h (0 Bft) N-NO 22 1,1 C 4,1 C 0,0 km/h (0 Bft)
09.11.2012 17:25 5,0 C 77 % 0,0 l/m 0,0 km/h (0 Bft) N-NO 22 1,3 C 3,8 C 0,0 km/h (0 Bft)
09.11.2012 17:30 4,7 C 77 % 0,0 l/m 0,0 km/h (0 Bft) W 270 1,0 C 3,7 C 0,0 km/h (0 Bft)
09.11.2012 17:35 3,9 C 77 % 0,0 l/m 0,0 km/h (0 Bft) SW 225 0,2 C 3,5 C 0,0 km/h (0 Bft)
09.11.2012 17:40 3,4 C 78 % 0,0 l/m 0,0 km/h (0 Bft) S 180 -0,1 C 3,1 C 0,0 km/h (0 Bft)
09.11.2012 17:45 3,1 C 78 % 0,0 l/m 0,0 km/h (0 Bft) SO 135 -0,4 C 2,9 C 0,0 km/h (0 Bft)
09.11.2012 17:50 3,0 C 79 % 0,0 l/m 0,0 km/h (0 Bft) SO 135 -0,3 C 2,6 C 0,0 km/h (0 Bft)
09.11.2012 17:55 2,8 C 79 % 0,0 l/m 0,0 km/h (0 Bft) SO 135 -0,5 C 2,5 C 0,0 km/h (0 Bft)
09.11.2012 18:00 2,9 C 81 % 0,0 l/m 0,0 km/h (0 Bft) N-NO 22 -0,0 C 2,3 C 0,0 km/h (0 Bft)
09.11.2012 18:05 2,7 C 82 % 0,0 l/m 0,0 km/h (0 Bft) NO 45 -0,1 C 2,2 C 0,0 km/h (0 Bft)
09.11.2012 18:10 2,7 C 82 % 0,0 l/m 0,0 km/h (0 Bft) N-NO 22 -0,1 C 2,1 C 0,0 km/h (0 Bft)
09.11.2012 18:15 2,6 C 83 % 0,0 l/m 0,0 km/h (0 Bft) NW 315 0,0 C 2,1 C 0,0 km/h (0 Bft)
09.11.2012 18:20 2,5 C 83 % 0,0 l/m 0,0 km/h (0 Bft) N 360 -0,1 C 2,1 C 0,0 km/h (0 Bft)
09.11.2012 18:25 2,4 C 84 % 0,0 l/m 0,0 km/h (0 Bft) O-SO 112 -0,0 C 2,1 C 0,0 km/h (0 Bft)
09.11.2012 18:30 2,4 C 84 % 0,0 l/m 0,0 km/h (0 Bft) W-NW 292 -0,0 C 2,0 C 0,0 km/h (0 Bft)
09.11.2012 18:35 2,3 C 85 % 0,0 l/m 0,0 km/h (0 Bft) W 270 0,0 C 2,1 C 0,0 km/h (0 Bft)
09.11.2012 18:40 2,1 C 85 % 0,0 l/m 0,0 km/h (0 Bft) O-NO 67 -0,2 C 1,9 C 0,0 km/h (0 Bft)
09.11.2012 18:45 2,1 C 85 % 0,0 l/m 0,0 km/h (0 Bft) S-SO 157 -0,2 C 1,8 C 0,0 km/h (0 Bft)
09.11.2012 18:50 2,0 C 86 % 0,0 l/m 0,2 km/h (0 Bft) S-SW 202 -0,1 C 1,7 C 0,0 km/h (0 Bft)
09.11.2012 18:55 1,9 C 86 % 0,0 l/m 0,0 km/h (0 Bft) NO 45 -0,2 C 1,6 C 0,0 km/h (0 Bft)
09.11.2012 19:00 1,9 C 87 % 0,0 l/m 0,0 km/h (0 Bft) N-NO 22 -0,0 C 1,5 C 0,0 km/h (0 Bft)
09.11.2012 19:05 1,7 C 87 % 0,0 l/m 0,0 km/h (0 Bft) NO 45 -0,2 C 1,4 C 0,0 km/h (0 Bft)
09.11.2012 19:10 1,6 C 87 % 0,0 l/m 0,0 km/h (0 Bft) NO 45 -0,3 C 1,3 C 0,0 km/h (0 Bft)
09.11.2012 19:15 1,5 C 87 % 0,0 l/m 0,0 km/h (0 Bft) NO 45 -0,4 C 1,3 C 0,0 km/h (0 Bft)
09.11.2012 19:20 1,3 C 87 % 0,0 l/m 0,0 km/h (0 Bft) N-NW 337 -0,6 C 1,2 C 0,0 km/h (0 Bft)
09.11.2012 19:25 1,3 C 87 % 0,0 l/m 0,0 km/h (0 Bft) N 360 -0,6 C 1,1 C 0,0 km/h (0 Bft)
09.11.2012 19:30 1,3 C 88 % 0,0 l/m 0,0 km/h (0 Bft) S-SW 202 -0,5 C 1,0 C 0,0 km/h (0 Bft)
09.11.2012 19:35 1,3 C 88 % 0,0 l/m 0,2 km/h (0 Bft) N-NO 22 -0,5 C 0,9 C 1,8 km/h (1 Bft)
09.11.2012 19:40 1,6 C 88 % 0,0 l/m 0,3 km/h (0 Bft) W 270 -0,2 C 1,0 C 0,0 km/h (0 Bft)
09.11.2012 19:45 1,4 C 88 % 0,0 l/m 0,2 km/h (0 Bft) N-NO 22 -0,4 C 1,0 C 0,0 km/h (0 Bft)
09.11.2012 19:50 1,5 C 89 % 0,0 l/m 0,0 km/h (0 Bft) S 180 -0,1 C 1,0 C 0,0 km/h (0 Bft)
09.11.2012 19:55 1,4 C 89 % 0,0 l/m 0,0 km/h (0 Bft) W-NW 292 -0,2 C 1,0 C 0,0 km/h (0 Bft)
09.11.2012 20:00 1,5 C 89 % 0,0 l/m 0,3 km/h (0 Bft) O-SO 112 -0,1 C 1,0 C 2,9 km/h (1 Bft)
09.11.2012 20:05 1,5 C 89 % 0,0 l/m 0,3 km/h (0 Bft) N 360 -0,1 C 1,1 C 1,8 km/h (1 Bft)
09.11.2012 20:10 1,7 C 91 % 0,0 l/m 0,3 km/h (0 Bft) N-NW 337 0,4 C 1,3 C 0,0 km/h (0 Bft)
09.11.2012 20:15 1,6 C 91 % 0,0 l/m 0,2 km/h (0 Bft) W 270 0,3 C 1,3 C 0,0 km/h (0 Bft)
09.11.2012 20:20 1,5 C 90 % 0,0 l/m 0,0 km/h (0 Bft) O 90 0,0 C 1,2 C 0,0 km/h (0 Bft)
09.11.2012 20:25 1,4 C 90 % 0,0 l/m 0,0 km/h (0 Bft) O 90 -0,1 C 1,2 C 0,0 km/h (0 Bft)
09.11.2012 20:30 1,5 C 90 % 0,0 l/m 0,0 km/h (0 Bft) O 90 0,0 C 1,1 C 0,0 km/h (0 Bft)
09.11.2012 20:35 1,4 C 90 % 0,0 l/m 0,0 km/h (0 Bft) O-SO 112 -0,1 C 1,2 C 0,0 km/h (0 Bft)
09.11.2012 20:40 1,2 C 90 % 0,0 l/m 0,0 km/h (0 Bft) S-SW 202 -0,3 C 1,1 C 0,0 km/h (0 Bft)
09.11.2012 20:45 1,0 C 89 % 0,0 l/m 0,0 km/h (0 Bft) W 270 -0,6 C 0,9 C 0,0 km/h (0 Bft)
09.11.2012 20:50 1,2 C 90 % 0,0 l/m 0,2 km/h (0 Bft) N 360 -0,3 C 0,8 C 1,8 km/h (1 Bft)
09.11.2012 20:55 1,4 C 90 % 0,0 l/m 0,2 km/h (0 Bft) W-SW 247 -0,1 C 0,9 C 0,0 km/h (0 Bft)
09.11.2012 21:00 1,5 C 90 % 0,0 l/m 0,2 km/h (0 Bft) N-NW 337 0,0 C 1,0 C 0,0 km/h (0 Bft)
09.11.2012 21:05 1,5 C 91 % 0,0 l/m 0,0 km/h (0 Bft) N 360 0,2 C 1,2 C 0,0 km/h (0 Bft)
09.11.2012 21:10 1,4 C 91 % 0,0 l/m 0,0 km/h (0 Bft) S-SO 157 0,1 C 1,2 C 0,0 km/h (0 Bft)
09.11.2012 21:15 1,4 C 91 % 0,0 l/m 0,0 km/h (0 Bft) N 360 0,1 C 1,2 C 1,8 km/h (1 Bft)
09.11.2012 21:20 1,4 C 91 % 0,0 l/m 0,0 km/h (0 Bft) SO 135 0,1 C 1,3 C 0,0 km/h (0 Bft)
09.11.2012 21:25 1,3 C 91 % 0,0 l/m 0,0 km/h (0 Bft) N-NO 22 -0,0 C 1,2 C 0,0 km/h (0 Bft)
09.11.2012 21:30 1,5 C 91 % 0,0 l/m 0,2 km/h (0 Bft) W-SW 247 0,2 C 1,2 C 0,0 km/h (0 Bft)
09.11.2012 21:35 1,5 C 91 % 0,0 l/m 0,2 km/h (0 Bft) SO 135 0,2 C 1,3 C 0,0 km/h (0 Bft)
09.11.2012 21:40 1,9 C 91 % 0,0 l/m 0,2 km/h (0 Bft) S-SO 157 0,6 C 1,5 C 0,0 km/h (0 Bft)
09.11.2012 21:45 1,8 C 91 % 0,0 l/m 0,0 km/h (0 Bft) W 270 0,5 C 1,6 C 0,0 km/h (0 Bft)
09.11.2012 21:50 1,8 C 91 % 0,0 l/m 0,0 km/h (0 Bft) N 360 0,5 C 1,5 C 2,3 km/h (1 Bft)
09.11.2012 21:55 1,9 C 92 % 0,0 l/m 0,5 km/h (0 Bft) N-NO 22 0,7 C 1,6 C 0,0 km/h (0 Bft)
09.11.2012 22:00 3,0 C 90 % 0,0 l/m 0,6 km/h (0 Bft) O 90 1,5 C 2,0 C 0,0 km/h (0 Bft)
09.11.2012 22:05 3,1 C 90 % 0,0 l/m 0,3 km/h (0 Bft) S-SO 157 1,6 C 2,2 C 0,0 km/h (0 Bft)
09.11.2012 22:10 2,3 C 90 % 0,0 l/m 0,2 km/h (0 Bft) N 360 0,8 C 2,3 C 2,4 km/h (1 Bft)
09.11.2012 22:15 2,9 C 91 % 0,0 l/m 0,3 km/h (0 Bft) NO 45 1,6 C 2,3 C 0,0 km/h (0 Bft)
09.11.2012 22:20 2,7 C 89 % 0,0 l/m 0,6 km/h (0 Bft) SO 135 1,1 C 2,5 C 0,0 km/h (0 Bft)
09.11.2012 22:25 2,1 C 89 % 0,0 l/m 0,3 km/h (0 Bft) W-NW 292 0,5 C 2,5 C 0,0 km/h (0 Bft)
09.11.2012 22:30 2,1 C 89 % 0,0 l/m 0,3 km/h (0 Bft) N-NW 337 0,5 C 2,3 C 0,0 km/h (0 Bft)
09.11.2012 22:35 2,3 C 89 % 0,0 l/m 0,3 km/h (0 Bft) N-NO 22 0,7 C 2,4 C 0,0 km/h (0 Bft)
09.11.2012 22:40 2,4 C 89 % 0,0 l/m 0,2 km/h (0 Bft) SO 135 0,8 C 2,5 C 1,9 km/h (1 Bft)
09.11.2012 22:45 2,2 C 89 % 0,0 l/m 0,5 km/h (0 Bft) O 90 0,6 C 2,6 C 0,0 km/h (0 Bft)
09.11.2012 22:50 2,2 C 89 % 0,0 l/m 0,3 km/h (0 Bft) W-NW 292 0,6 C 2,3 C 0,0 km/h (0 Bft)
09.11.2012 22:55 2,2 C 89 % 0,0 l/m 0,0 km/h (0 Bft) N-NW 337 0,6 C 2,2 C 0,0 km/h (0 Bft)
09.11.2012 23:00 2,5 C 89 % 0,0 l/m 0,2 km/h (0 Bft) W-NW 292 0,9 C 2,3 C 0,0 km/h (0 Bft)
09.11.2012 23:05 2,7 C 89 % 0,0 l/m 0,0 km/h (0 Bft) W-SW 247 1,1 C 2,6 C 0,0 km/h (0 Bft)
09.11.2012 23:10 3,2 C 88 % 0,0 l/m 0,5 km/h (0 Bft) N-NW 337 1,4 C 2,9 C 2,1 km/h (1 Bft)
09.11.2012 23:15 3,6 C 88 % 0,0 l/m 0,5 km/h (0 Bft) O 90 1,8 C 3,3 C 0,0 km/h (0 Bft)
09.11.2012 23:20 3,4 C 88 % 0,0 l/m 0,2 km/h (0 Bft) S-SW 202 1,6 C 3,7 C 0,0 km/h (0 Bft)
09.11.2012 23:25 3,4 C 88 % 0,0 l/m 0,0 km/h (0 Bft) O-SO 112 1,6 C 3,9 C 0,0 km/h (0 Bft)
09.11.2012 23:30 3,4 C 87 % 0,0 l/m 0,0 km/h (0 Bft) N-NW 337 1,4 C 4,1 C 0,0 km/h (0 Bft)
09.11.2012 23:35 3,6 C 87 % 0,0 l/m 0,0 km/h (0 Bft) N-NW 337 1,6 C 4,3 C 0,0 km/h (0 Bft)
09.11.2012 23:40 3,6 C 87 % 0,0 l/m 0,2 km/h (0 Bft) O-SO 112 1,6 C 4,4 C 0,0 km/h (0 Bft)
09.11.2012 23:45 3,6 C 86 % 0,0 l/m 0,2 km/h (0 Bft) N 360 1,5 C 4,4 C 0,0 km/h (0 Bft)
09.11.2012 23:50 4,2 C 86 % 0,0 l/m 0,2 km/h (0 Bft) N-NO 22 2,1 C 4,5 C 0,0 km/h (0 Bft)
09.11.2012 23:55 4,6 C 86 % 0,0 l/m 0,2 km/h (0 Bft) O-SO 112 2,5 C 4,6 C 0,0 km/h (0 Bft)
_ Min-Zeit 07:25 15:00 - 23:35 - - 07:25 07:00 23:55
Minimum _ -2,4 C 60 % - 0,0 km/h (0 Bft) - - -4,0 C -3,1 C 0,0 km/h (0 Bft)
_ Max-Zeit 15:05 21:55 23:55 13:40 - - 14:05 11:25 13:20
Maximum _ 9,3 C 92 % 0,0 l/m 4,3 km/h
S-SW (1 Bft)
- - 2,7 C 17,5 C 9,3 km/h
W (2 Bft)
Durchschnitt _ 2,7 C 81 % #0,0 l/m 0,7 km/h (0 Bft) W-NW - -0,3 C 3,6 C 1,0 km/h (0 Bft)